createdAt,value
2022-12-08T00:00:40.591Z,91.88
2022-12-08T00:03:15.544Z,91.87
2022-12-08T00:06:08.673Z,91.58
2022-12-08T00:09:00.370Z,92.07
2022-12-08T00:11:34.540Z,90.98
2022-12-08T00:14:09.115Z,90.38
2022-12-08T00:16:43.503Z,90.53
2022-12-08T00:19:18.156Z,90.78
2022-12-08T00:21:54.705Z,91.18
2022-12-08T00:24:32.637Z,91.53
2022-12-08T00:27:07.549Z,90.49
2022-12-08T00:29:43.975Z,90.97
2022-12-08T00:32:18.155Z,90.83
2022-12-08T00:34:52.601Z,90.79
2022-12-08T00:37:28.275Z,91.08
2022-12-08T00:40:03.025Z,91.43
2022-12-08T00:42:37.324Z,91.51
2022-12-08T00:45:12.940Z,91.12
2022-12-08T00:47:47.059Z,89.99
2022-12-08T00:50:21.609Z,89.76
2022-12-08T00:52:57.093Z,91.38
2022-12-08T00:55:31.808Z,90.87
2022-12-08T00:58:06.125Z,91.19
2022-12-08T01:00:42.166Z,92.50
2022-12-08T01:03:16.660Z,92.35
2022-12-08T01:05:51.253Z,91.55
2022-12-08T01:08:27.657Z,90.74
2022-12-08T01:11:04.920Z,90.20
2022-12-08T01:13:39.164Z,90.63
2022-12-08T01:16:23.233Z,91.26
2022-12-08T01:18:58.388Z,90.54
2022-12-08T01:21:32.775Z,90.25
2022-12-08T01:24:11.847Z,90.09
2022-12-08T01:26:46.763Z,89.14
2022-12-08T01:29:20.952Z,89.49
2022-12-08T01:31:55.457Z,89.88
2022-12-08T01:34:29.682Z,89.58
2022-12-08T01:37:04.584Z,89.33
2022-12-08T01:39:41.327Z,88.06
2022-12-08T01:42:22.173Z,88.75
2022-12-08T01:45:00.069Z,88.68
2022-12-08T01:47:39.489Z,88.65
2022-12-08T01:50:15.573Z,89.11
2022-12-08T01:52:53.806Z,89.26
2022-12-08T01:55:34.810Z,88.92
2022-12-08T01:58:15.407Z,88.84
2022-12-08T02:00:50.689Z,88.83
2022-12-08T02:03:30.405Z,87.50
2022-12-08T02:06:05.218Z,88.10
2022-12-08T02:08:41.702Z,88.68
2022-12-08T02:11:17.431Z,89.01
2022-12-08T02:13:54.323Z,88.69
2022-12-08T02:16:39.591Z,88.15
2022-12-08T02:19:38.055Z,87.88
2022-12-08T02:22:16.205Z,87.67
2022-12-08T02:24:58.460Z,87.53
2022-12-08T02:27:49.163Z,87.28
2022-12-08T02:30:27.510Z,87.77
2022-12-08T02:33:40.800Z,88.07
2022-12-08T02:36:23.781Z,88.02
2022-12-08T02:39:03.866Z,87.38
2022-12-08T02:41:47.243Z,87.91
2022-12-08T02:44:30.339Z,88.27
2022-12-08T02:47:08.914Z,87.70
2022-12-08T02:49:43.379Z,87.52
2022-12-08T02:52:41.455Z,88.29
2022-12-08T02:55:27.509Z,87.47
2022-12-08T02:58:31.160Z,87.20
2022-12-08T03:01:26.130Z,87.48
2022-12-08T03:04:08.097Z,87.78
2022-12-08T03:06:49.649Z,88.62
2022-12-08T03:09:35.060Z,89.29
2022-12-08T03:12:17.981Z,89.29
2022-12-08T03:14:54.996Z,89.98
2022-12-08T03:17:32.345Z,89.56
2022-12-08T03:20:13.366Z,89.27
2022-12-08T03:22:49.625Z,88.92
2022-12-08T03:25:28.495Z,89.14
2022-12-08T03:28:02.893Z,89.22
2022-12-08T03:30:40.983Z,90.06
2022-12-08T03:33:20.105Z,90.76
2022-12-08T03:35:55.586Z,90.54
2022-12-08T03:38:39.162Z,90.37
2022-12-08T03:41:21.059Z,90.61
2022-12-08T03:43:57.264Z,90.87
2022-12-08T03:46:32.519Z,91.21
2022-12-08T03:49:07.224Z,90.73
2022-12-08T03:51:41.914Z,90.25
2022-12-08T03:54:16.087Z,90.06
2022-12-08T03:56:51.953Z,89.86
2022-12-08T03:59:26.683Z,90.25
2022-12-08T04:02:01.166Z,90.23
2022-12-08T04:04:36.312Z,90.81
2022-12-08T04:07:10.430Z,90.54
2022-12-08T04:09:46.147Z,91.46
2022-12-08T04:12:21.655Z,91.11
2022-12-08T04:14:56.058Z,91.42
2022-12-08T04:17:30.286Z,91.89
2022-12-08T04:20:05.235Z,91.35
2022-12-08T04:22:40.059Z,90.41
2022-12-08T04:25:14.706Z,90.22
2022-12-08T04:27:50.262Z,89.85
2022-12-08T04:30:25.709Z,89.96
2022-12-08T04:32:59.923Z,89.69
2022-12-08T04:35:34.428Z,90.30
2022-12-08T04:38:09.139Z,90.03
2022-12-08T04:40:43.792Z,89.65
2022-12-08T04:43:19.512Z,89.80
2022-12-08T04:45:54.039Z,89.83
2022-12-08T04:48:28.355Z,89.94
2022-12-08T04:51:02.852Z,90.31
2022-12-08T04:53:39.916Z,91.12
2022-12-08T04:56:18.003Z,90.81
2022-12-08T04:58:53.833Z,90.55
2022-12-08T05:01:28.382Z,90.38
2022-12-08T05:04:02.587Z,90.13
2022-12-08T05:06:36.939Z,89.86
2022-12-08T05:09:11.186Z,90.54
2022-12-08T05:11:49.006Z,90.95
2022-12-08T05:14:24.844Z,91.32
2022-12-08T05:17:00.315Z,91.43
2022-12-08T05:19:36.887Z,91.09
2022-12-08T05:22:11.626Z,91.97
2022-12-08T05:24:47.700Z,91.42
2022-12-08T05:27:22.382Z,91.32
2022-12-08T05:29:59.073Z,91.90
2022-12-08T05:32:33.611Z,92.17
2022-12-08T05:35:08.580Z,92.20
2022-12-08T05:37:43.039Z,92.08
2022-12-08T05:40:17.456Z,91.72
2022-12-08T05:42:53.110Z,92.01
2022-12-08T05:45:28.796Z,91.98
2022-12-08T05:48:03.438Z,90.62
2022-12-08T05:50:37.507Z,91.21
2022-12-08T05:53:11.937Z,91.33
2022-12-08T05:55:46.587Z,90.94
2022-12-08T05:58:24.330Z,90.87
2022-12-08T06:00:59.918Z,90.53
2022-12-08T06:03:35.245Z,90.20
2022-12-08T06:06:09.460Z,89.30
2022-12-08T06:08:43.979Z,89.50
2022-12-08T06:11:22.499Z,90.47
2022-12-08T06:13:58.154Z,90.32
2022-12-08T06:16:33.820Z,89.96
2022-12-08T06:19:08.406Z,89.99
2022-12-08T06:21:42.456Z,90.35
2022-12-08T06:24:17.012Z,90.61
2022-12-08T06:26:51.282Z,91.06
2022-12-08T06:29:26.039Z,90.80
2022-12-08T06:32:01.664Z,91.61
2022-12-08T06:34:36.086Z,92.32
2022-12-08T06:37:10.336Z,91.38
2022-12-08T06:39:44.893Z,90.73
2022-12-08T06:42:36.571Z,91.44
2022-12-08T06:45:11.974Z,91.55
2022-12-08T06:47:47.473Z,91.58
2022-12-08T06:50:22.203Z,92.03
2022-12-08T06:53:04.806Z,91.54
2022-12-08T06:55:58.705Z,91.21
2022-12-08T06:58:33.914Z,90.92
2022-12-08T07:01:09.512Z,90.53
2022-12-08T07:03:46.261Z,90.97
2022-12-08T07:06:23.603Z,90.98
2022-12-08T07:08:57.744Z,90.63
2022-12-08T07:11:32.262Z,90.66
2022-12-08T07:14:06.478Z,90.58
2022-12-08T07:16:41.205Z,90.26
2022-12-08T07:19:17.108Z,90.38
2022-12-08T07:21:51.566Z,90.39
2022-12-08T07:24:25.907Z,90.67
2022-12-08T07:27:00.416Z,90.42
2022-12-08T07:29:34.702Z,90.64
2022-12-08T07:32:09.864Z,100.00
2022-12-08T07:34:47.152Z,100.00
2022-12-08T07:37:21.941Z,100.00
2022-12-08T07:39:56.601Z,95.67
2022-12-08T07:42:31.113Z,94.77
2022-12-08T07:45:05.760Z,92.88
2022-12-08T07:47:40.188Z,100.00
2022-12-08T07:50:16.112Z,100.00
2022-12-08T07:52:51.135Z,95.46
2022-12-08T07:55:25.265Z,92.32
2022-12-08T07:57:59.918Z,87.67
2022-12-08T08:00:34.128Z,87.10
2022-12-08T08:03:09.073Z,86.57
2022-12-08T08:05:45.254Z,85.86
2022-12-08T08:08:19.928Z,86.35
2022-12-08T08:10:54.244Z,86.24
2022-12-08T08:13:28.680Z,85.89
2022-12-08T08:16:05.865Z,85.50
2022-12-08T08:18:41.128Z,86.49
2022-12-08T08:21:43.871Z,86.32
2022-12-08T08:24:11.796Z,85.22
2022-12-08T08:26:45.953Z,84.69
2022-12-08T08:29:20.520Z,86.32
2022-12-08T08:31:54.720Z,85.84
2022-12-08T08:34:29.079Z,85.77
2022-12-08T08:37:04.684Z,86.06
2022-12-08T08:39:39.231Z,85.59
2022-12-08T08:42:13.333Z,85.49
2022-12-08T08:44:48.131Z,84.72
2022-12-08T08:47:22.371Z,83.03
2022-12-08T08:49:57.173Z,84.31
2022-12-08T08:52:35.643Z,83.25
2022-12-08T08:55:10.602Z,83.64
2022-12-08T08:57:45.076Z,85.19
2022-12-08T09:00:20.328Z,100.00
2022-12-08T09:06:16.912Z,89.98
2022-12-08T09:08:53.298Z,85.80
2022-12-08T09:11:27.593Z,85.25
2022-12-08T09:14:02.708Z,84.89
2022-12-08T09:16:41.996Z,83.40
2022-12-08T09:19:37.574Z,83.61
2022-12-08T09:22:11.802Z,84.68
2022-12-08T09:24:47.954Z,85.22
2022-12-08T09:27:22.364Z,84.86
2022-12-08T09:29:57.409Z,85.21
2022-12-08T09:32:31.697Z,85.08
2022-12-08T09:35:06.817Z,85.56
2022-12-08T09:37:40.977Z,85.71
2022-12-08T09:40:21.293Z,84.84
2022-12-08T09:43:03.492Z,84.71
2022-12-08T09:45:38.232Z,84.19
2022-12-08T09:48:17.628Z,83.80
2022-12-08T09:50:56.843Z,84.19
2022-12-08T10:09:59.635Z,80.46
2022-12-08T10:12:42.820Z,80.29
2022-12-08T10:15:35.279Z,100.00
2022-12-08T10:18:16.084Z,100.00
2022-12-08T10:20:51.952Z,92.11
2022-12-08T10:23:31.058Z,83.14
2022-12-08T10:26:08.887Z,81.21
2022-12-08T10:28:45.428Z,81.78
2022-12-08T10:31:22.301Z,78.59
2022-12-08T10:34:00.410Z,80.51
2022-12-08T10:36:51.144Z,80.66
2022-12-08T10:39:32.473Z,81.12
2022-12-08T10:42:18.790Z,82.04
2022-12-08T10:45:02.027Z,82.66
2022-12-08T10:47:38.109Z,81.82
2022-12-08T10:50:43.776Z,81.03
2022-12-08T10:53:24.878Z,81.56
2022-12-08T10:56:08.899Z,82.08
2022-12-08T10:58:47.032Z,81.21
2022-12-08T11:01:23.069Z,81.41
2022-12-08T11:04:00.229Z,81.21
2022-12-08T11:06:38.022Z,80.51
2022-12-08T11:09:35.333Z,80.15
2022-12-08T11:12:14.938Z,80.10
2022-12-08T11:14:58.202Z,79.84
2022-12-08T11:17:39.571Z,79.71
2022-12-08T11:20:24.439Z,80.36
2022-12-08T11:22:59.043Z,80.03
2022-12-08T11:25:34.150Z,79.02
2022-12-08T11:28:12.521Z,79.88
2022-12-08T11:30:51.273Z,80.18
2022-12-08T11:33:27.891Z,79.89
2022-12-08T11:36:14.671Z,79.62
2022-12-08T11:39:16.041Z,100.00
2022-12-08T11:42:11.304Z,100.00
2022-12-08T11:44:52.639Z,84.97
2022-12-08T11:47:33.414Z,82.83
2022-12-08T11:50:21.733Z,80.95
2022-12-08T11:52:59.569Z,79.86
2022-12-08T11:55:41.586Z,80.40
2022-12-08T11:58:21.562Z,80.54
2022-12-08T12:00:56.676Z,79.88
2022-12-08T12:03:37.606Z,80.75
2022-12-08T12:09:38.431Z,79.91
2022-12-08T12:12:27.312Z,80.67
2022-12-08T12:15:47.633Z,80.50
2022-12-08T12:18:36.389Z,81.10
2022-12-08T12:21:19.393Z,81.26
2022-12-08T12:23:57.883Z,81.35
2022-12-08T12:26:37.268Z,81.35
2022-12-08T12:30:03.100Z,80.60
2022-12-08T12:33:03.223Z,80.78
2022-12-08T12:35:42.703Z,80.88
2022-12-08T12:38:43.918Z,81.07
2022-12-08T12:41:47.339Z,81.47
2022-12-08T12:44:43.348Z,81.52
2022-12-08T12:54:13.573Z,82.15
2022-12-08T13:00:37.122Z,100.00
2022-12-08T13:03:17.049Z,97.61
2022-12-08T13:05:54.540Z,87.61
2022-12-08T13:08:29.864Z,82.02
2022-12-08T13:19:03.176Z,81.70
2022-12-08T13:25:37.084Z,83.51
2022-12-08T13:28:20.042Z,83.70
2022-12-08T13:30:55.807Z,84.56
2022-12-08T13:33:33.693Z,83.79
2022-12-08T13:36:18.524Z,83.88
2022-12-08T13:38:57.531Z,84.08
2022-12-08T13:41:37.325Z,84.38
2022-12-08T14:03:00.749Z,84.94
2022-12-08T14:06:10.912Z,84.72
2022-12-08T14:08:59.982Z,86.82
2022-12-08T14:11:37.495Z,86.63
2022-12-08T14:14:32.707Z,86.99
2022-12-08T14:17:14.478Z,87.00
2022-12-08T14:20:01.706Z,86.80
2022-12-08T14:22:37.120Z,86.66
2022-12-08T14:25:16.220Z,87.84
2022-12-08T14:27:50.769Z,87.17
2022-12-08T14:30:30.606Z,86.90
2022-12-08T14:33:06.405Z,87.34
2022-12-08T14:35:42.453Z,87.96
2022-12-08T14:38:18.572Z,87.71
2022-12-08T14:41:02.880Z,88.31
2022-12-08T14:43:37.438Z,88.55
2022-12-08T14:46:22.634Z,88.71
2022-12-08T14:48:58.320Z,88.52
2022-12-08T14:51:34.889Z,90.24
2022-12-08T14:54:13.409Z,90.29
2022-12-08T14:56:52.081Z,90.55
2022-12-08T15:02:33.204Z,90.29
2022-12-08T15:05:13.636Z,90.27
2022-12-08T15:07:51.649Z,91.39
2022-12-08T15:10:29.671Z,91.08
2022-12-08T15:13:08.882Z,90.74
2022-12-08T15:15:50.143Z,90.40
2022-12-08T15:18:33.580Z,89.75
2022-12-08T15:21:10.216Z,90.01
2022-12-08T15:23:47.482Z,90.54
2022-12-08T15:26:23.695Z,90.00
2022-12-08T15:32:20.987Z,90.42
2022-12-08T15:34:55.500Z,90.32
2022-12-08T15:37:29.720Z,90.89
2022-12-08T15:40:07.940Z,91.33
2022-12-08T15:42:42.710Z,91.27
2022-12-08T15:45:18.575Z,91.72
2022-12-08T16:07:22.659Z,90.46
2022-12-08T16:09:58.247Z,90.50
2022-12-08T16:13:55.125Z,90.50
2022-12-08T16:15:55.526Z,90.38
2022-12-08T16:18:36.807Z,90.37
2022-12-08T16:21:31.681Z,90.58
2022-12-08T16:24:14.023Z,90.75
2022-12-08T16:29:47.169Z,90.47
2022-12-08T16:42:43.594Z,100.00
2022-12-08T16:45:20.350Z,98.52
2022-12-08T16:47:56.797Z,93.50
2022-12-08T16:50:33.741Z,91.39
2022-12-08T16:53:11.174Z,90.29
2022-12-08T16:55:47.888Z,90.58
2022-12-08T16:58:23.630Z,90.49
2022-12-08T17:00:58.352Z,91.26
2022-12-08T17:03:34.529Z,92.07
2022-12-08T17:06:45.289Z,92.23
2022-12-08T17:09:19.893Z,91.59
2022-12-08T17:11:58.801Z,92.00
2022-12-08T17:14:37.844Z,91.32
2022-12-08T17:17:12.315Z,91.66
2022-12-08T17:19:55.023Z,92.58
2022-12-08T17:22:29.458Z,92.04
2022-12-08T17:25:05.398Z,91.60
2022-12-08T17:30:56.825Z,92.37
2022-12-08T17:33:31.469Z,92.94
2022-12-08T17:36:17.575Z,93.39
2022-12-08T17:38:52.055Z,92.48
2022-12-08T17:41:27.622Z,93.13
2022-12-08T17:44:12.439Z,92.85
2022-12-08T17:46:52.913Z,92.99
2022-12-08T17:49:34.074Z,92.29
2022-12-08T17:52:08.280Z,92.26
2022-12-08T17:54:46.991Z,92.00
2022-12-08T17:57:21.225Z,91.22
2022-12-08T17:59:56.059Z,91.54
2022-12-08T18:02:33.571Z,91.11
2022-12-08T18:05:08.801Z,91.67
2022-12-08T18:07:43.416Z,91.12
2022-12-08T18:10:19.248Z,91.22
2022-12-08T18:12:53.402Z,92.00
2022-12-08T18:15:28.815Z,91.19
2022-12-08T18:18:05.154Z,90.96
2022-12-08T18:20:39.714Z,91.42
2022-12-08T18:23:14.074Z,91.01
2022-12-08T18:25:48.579Z,91.00
2022-12-08T18:28:23.819Z,91.15
2022-12-08T18:30:58.500Z,90.99
2022-12-08T18:37:10.490Z,89.94
2022-12-08T18:39:46.553Z,90.12
2022-12-08T18:42:28.393Z,90.07
2022-12-08T18:45:04.549Z,89.21
2022-12-08T18:47:40.799Z,100.00
2022-12-08T18:50:16.612Z,100.00
2022-12-08T18:52:51.142Z,100.00
2022-12-08T18:55:27.316Z,93.92
2022-12-08T18:58:01.482Z,94.28
2022-12-08T19:00:36.316Z,91.91
2022-12-08T19:03:10.869Z,91.75
2022-12-08T19:05:45.647Z,92.67
2022-12-08T19:08:20.742Z,91.88
2022-12-08T19:10:56.971Z,91.45
2022-12-08T19:13:31.660Z,92.00
2022-12-08T19:16:07.522Z,92.34
2022-12-08T19:18:43.008Z,91.65
2022-12-08T19:21:17.756Z,92.07
2022-12-08T19:23:52.855Z,91.35
2022-12-08T19:26:30.024Z,91.64
2022-12-08T19:29:05.026Z,91.48
2022-12-08T19:31:40.336Z,91.87
2022-12-08T19:34:16.003Z,91.41
2022-12-08T19:36:50.885Z,91.61
2022-12-08T19:39:42.771Z,91.43
2022-12-08T19:42:37.966Z,91.87
2022-12-08T19:45:15.175Z,92.03
2022-12-08T19:47:50.205Z,100.00
2022-12-08T19:50:40.597Z,100.00
2022-12-08T19:53:16.979Z,97.25
2022-12-08T19:55:51.973Z,99.52
2022-12-08T19:58:28.014Z,95.44
2022-12-08T20:01:02.631Z,93.66
2022-12-08T20:03:37.416Z,89.83
2022-12-08T20:06:16.677Z,90.82
2022-12-08T20:08:52.458Z,91.60
2022-12-08T20:12:08.225Z,90.21
2022-12-08T20:14:46.029Z,90.21
2022-12-08T20:17:20.614Z,91.54
2022-12-08T20:19:55.350Z,91.21
2022-12-08T20:22:29.868Z,91.96
2022-12-08T20:25:05.295Z,92.49
2022-12-08T20:27:41.097Z,91.43
2022-12-08T20:30:17.442Z,92.09
2022-12-08T20:32:53.107Z,93.13
2022-12-08T20:35:27.874Z,92.65
2022-12-08T20:38:02.414Z,100.00
2022-12-08T20:40:37.118Z,100.00
2022-12-08T20:43:12.806Z,98.69
2022-12-08T20:45:47.741Z,93.31
2022-12-08T20:48:22.419Z,90.46
2022-12-08T20:50:57.257Z,90.04
2022-12-08T20:53:31.661Z,100.00
2022-12-08T20:56:07.082Z,100.00
2022-12-08T20:58:44.125Z,93.30
2022-12-08T21:01:21.640Z,91.59
2022-12-08T21:03:56.053Z,91.66
2022-12-08T21:06:30.795Z,92.11
2022-12-08T21:09:05.511Z,91.83
2022-12-08T21:11:40.210Z,92.12
2022-12-08T21:14:15.937Z,92.64
2022-12-08T21:16:50.990Z,93.27
2022-12-08T21:19:25.463Z,93.18
2022-12-08T21:22:00.104Z,94.26
2022-12-08T21:24:34.999Z,93.09
2022-12-08T21:27:09.642Z,92.69
2022-12-08T21:29:45.250Z,93.43
2022-12-08T21:32:22.420Z,93.61
2022-12-08T21:34:59.921Z,93.46
2022-12-08T21:37:34.743Z,93.51
2022-12-08T21:40:10.421Z,93.43
2022-12-08T21:42:46.111Z,92.76
2022-12-08T21:45:22.686Z,93.11
2022-12-08T21:47:59.289Z,92.98
2022-12-08T21:50:34.581Z,92.32
2022-12-08T21:53:09.105Z,92.36
2022-12-08T21:55:43.722Z,100.00
2022-12-08T21:58:18.235Z,100.00
2022-12-08T22:00:54.315Z,100.00
2022-12-08T22:03:30.035Z,98.18
2022-12-08T22:06:08.170Z,93.62
2022-12-08T22:08:43.860Z,94.97
2022-12-08T22:11:19.323Z,93.80
2022-12-08T22:13:53.888Z,92.86
2022-12-08T22:16:29.887Z,92.88
2022-12-08T22:19:04.701Z,92.21
2022-12-08T22:21:39.241Z,92.72
2022-12-08T22:24:13.776Z,92.54
2022-12-08T22:26:47.952Z,92.53
2022-12-08T22:29:22.547Z,92.99
2022-12-08T22:31:58.300Z,92.85
2022-12-08T22:34:32.749Z,92.53
2022-12-08T22:37:07.258Z,92.97
2022-12-08T22:39:41.765Z,93.15
2022-12-08T22:42:16.163Z,92.67
2022-12-08T22:44:50.639Z,92.85
2022-12-08T22:47:26.204Z,93.30
2022-12-08T22:50:00.902Z,92.81
2022-12-08T22:52:35.213Z,92.77
2022-12-08T22:55:10.509Z,93.13
2022-12-08T22:57:44.867Z,93.23
2022-12-08T23:00:20.778Z,93.16
2022-12-08T23:02:56.627Z,93.04
2022-12-08T23:05:34.548Z,92.75
2022-12-08T23:08:10.586Z,93.18
2022-12-08T23:10:46.824Z,93.25
2022-12-08T23:13:21.958Z,93.93
2022-12-08T23:15:56.453Z,93.82
2022-12-08T23:18:33.500Z,93.57
2022-12-08T23:21:10.620Z,93.94
2022-12-08T23:23:45.328Z,92.96
2022-12-08T23:26:22.422Z,93.49
2022-12-08T23:28:57.864Z,93.78
2022-12-08T23:31:32.984Z,93.20
2022-12-08T23:34:08.886Z,92.91
2022-12-08T23:36:43.415Z,93.01
2022-12-08T23:39:18.145Z,92.90
2022-12-08T23:41:52.849Z,93.11
2022-12-08T23:44:27.053Z,92.79
2022-12-08T23:47:01.705Z,93.08
2022-12-08T23:49:37.428Z,92.94
2022-12-08T23:52:13.885Z,93.35
2022-12-08T23:54:50.712Z,93.08
2022-12-08T23:57:25.553Z,93.23
2022-12-08T23:59:59.761Z,93.32
